createdAt,value
2019-04-14T00:00:16.989Z,17.83
2019-04-14T00:02:47.256Z,23.10
2019-04-14T00:05:16.948Z,18.77
2019-04-14T00:07:47.060Z,18.90
2019-04-14T00:10:18.141Z,19.87
2019-04-14T00:12:47.080Z,19.93
2019-04-14T00:15:24.370Z,23.77
2019-04-14T00:17:46.421Z,19.20
2019-04-14T00:20:15.034Z,18.40
2019-04-14T00:22:44.653Z,19.70
2019-04-14T00:25:13.408Z,19.23
2019-04-14T00:27:42.913Z,25.13
2019-04-14T00:30:16.498Z,20.37
2019-04-14T00:32:46.839Z,20.87
2019-04-14T00:35:23.126Z,18.30
2019-04-14T00:38:10.589Z,22.17
2019-04-14T00:40:41.053Z,17.33
2019-04-14T00:43:30.888Z,22.30
2019-04-14T00:46:07.984Z,18.50
2019-04-14T00:48:36.726Z,19.77
2019-04-14T00:51:06.961Z,17.63
2019-04-14T00:53:36.070Z,22.57
2019-04-14T00:56:04.624Z,23.23
2019-04-14T00:58:34.029Z,20.70
2019-04-14T01:01:02.935Z,21.57
2019-04-14T01:03:31.482Z,20.50
2019-04-14T01:06:01.067Z,28.60
2019-04-14T01:08:29.875Z,21.40
2019-04-14T01:10:58.449Z,21.30
2019-04-14T01:13:27.010Z,18.83
2019-04-14T01:16:03.795Z,23.20
2019-04-14T01:18:25.804Z,23.57
2019-04-14T01:20:55.579Z,23.10
2019-04-14T01:23:24.227Z,26.70
2019-04-14T01:25:52.758Z,21.07
2019-04-14T01:28:22.238Z,21.70
2019-04-14T01:30:50.832Z,21.50
2019-04-14T01:33:20.496Z,25.03
2019-04-14T01:35:49.206Z,22.57
2019-04-14T01:38:18.955Z,22.80
2019-04-14T01:40:48.748Z,19.30
2019-04-14T01:43:17.460Z,20.73
2019-04-14T01:45:58.110Z,22.70
2019-04-14T01:48:17.108Z,23.87
2019-04-14T01:51:00.562Z,24.70
2019-04-14T01:53:46.789Z,28.73
2019-04-14T01:56:32.567Z,23.83
2019-04-14T01:59:02.816Z,25.53
2019-04-14T02:01:33.029Z,23.40
2019-04-14T02:04:02.823Z,22.93
2019-04-14T02:06:33.126Z,27.40
2019-04-14T02:09:03.199Z,39.07
2019-04-14T02:11:31.835Z,23.23
2019-04-14T02:14:01.503Z,31.03
2019-04-14T02:16:37.848Z,27.90
2019-04-14T02:19:00.435Z,32.30
2019-04-14T02:21:30.177Z,23.83
2019-04-14T02:24:00.357Z,23.73
2019-04-14T02:26:29.145Z,24.50
2019-04-14T02:28:57.716Z,22.40
2019-04-14T02:31:46.833Z,23.00
2019-04-14T02:34:25.078Z,26.97
2019-04-14T02:36:56.871Z,27.10
2019-04-14T02:39:43.287Z,24.00
2019-04-14T02:42:06.968Z,22.43
2019-04-14T02:46:58.154Z,24.20
2019-04-14T02:49:29.484Z,22.07
2019-04-14T02:51:58.470Z,25.60
2019-04-14T02:57:03.476Z,25.07
2019-04-14T02:59:19.697Z,20.93
2019-04-14T03:02:09.631Z,18.90
2019-04-14T03:04:25.829Z,20.73
2019-04-14T03:06:55.019Z,19.37
2019-04-14T03:11:52.034Z,19.63
2019-04-14T03:14:30.828Z,25.80
2019-04-14T03:19:44.151Z,19.80
2019-04-14T03:22:23.701Z,17.60
2019-04-14T03:24:50.436Z,20.83
2019-04-14T03:27:39.819Z,21.77
2019-04-14T03:30:35.789Z,21.27
2019-04-14T03:33:14.196Z,18.00
2019-04-14T03:35:35.178Z,20.23
2019-04-14T03:40:08.472Z,21.80
2019-04-14T03:42:48.562Z,20.60
2019-04-14T03:45:16.702Z,18.00
2019-04-14T03:47:57.797Z,21.70
2019-04-14T03:50:16.084Z,19.60
2019-04-14T03:52:50.280Z,18.80
2019-04-14T03:55:09.373Z,18.93
2019-04-14T03:57:19.323Z,22.00
2019-04-14T03:59:47.936Z,20.70
2019-04-14T04:02:16.535Z,18.40
2019-04-14T04:04:45.110Z,25.27
2019-04-14T04:07:14.861Z,23.80
2019-04-14T04:10:05.107Z,22.63
2019-04-14T04:12:33.811Z,24.00
2019-04-14T04:15:02.327Z,22.37
2019-04-14T04:17:36.299Z,23.10
2019-04-14T04:20:08.877Z,21.33
2019-04-14T04:22:45.624Z,25.87
2019-04-14T04:25:44.441Z,27.63
2019-04-14T04:28:25.624Z,22.93
2019-04-14T04:31:02.445Z,24.87
2019-04-14T04:33:32.766Z,23.07
2019-04-14T04:36:12.220Z,24.43
2019-04-14T04:38:55.293Z,25.80
2019-04-14T04:41:23.922Z,25.17
2019-04-14T04:43:52.469Z,23.50
2019-04-14T04:46:22.043Z,27.23
2019-04-14T04:49:00.037Z,25.43
2019-04-14T04:51:20.932Z,22.80
2019-04-14T04:53:50.511Z,24.37
2019-04-14T04:56:19.090Z,23.23
2019-04-14T04:58:48.058Z,24.50
2019-04-14T05:01:16.754Z,25.80
2019-04-14T05:03:45.348Z,22.87
2019-04-14T05:06:43.643Z,25.87
2019-04-14T05:09:14.451Z,23.43
2019-04-14T05:11:44.819Z,24.30
2019-04-14T05:14:17.949Z,24.93
2019-04-14T05:16:46.558Z,26.90
2019-04-14T05:19:23.596Z,22.37
2019-04-14T05:21:45.286Z,22.60
2019-04-14T05:24:14.089Z,22.20
2019-04-14T05:26:43.740Z,21.60
2019-04-14T05:29:12.491Z,26.00
2019-04-14T05:31:41.048Z,27.60
2019-04-14T05:34:10.710Z,20.90
2019-04-14T05:36:39.391Z,27.00
2019-04-14T05:39:08.919Z,24.07
2019-04-14T05:41:37.623Z,21.80
2019-04-14T05:44:06.419Z,23.30
2019-04-14T05:46:36.016Z,24.40
2019-04-14T05:49:04.756Z,27.33
2019-04-14T05:51:33.319Z,25.23
2019-04-14T05:54:01.878Z,22.47
2019-04-14T05:56:31.648Z,24.60
2019-04-14T05:59:00.633Z,24.10
2019-04-14T06:01:29.242Z,22.93
2019-04-14T06:03:58.178Z,21.33
2019-04-14T06:06:26.745Z,23.80
2019-04-14T06:08:58.011Z,21.27
2019-04-14T06:11:27.238Z,20.37
2019-04-14T06:13:55.827Z,20.40
2019-04-14T06:16:24.428Z,22.33
2019-04-14T06:18:52.980Z,22.73
2019-04-14T06:21:21.504Z,18.77
2019-04-14T06:23:50.018Z,19.30
2019-04-14T06:26:18.509Z,19.27
2019-04-14T06:28:47.046Z,16.93
2019-04-14T06:31:33.733Z,16.90
2019-04-14T06:34:03.924Z,17.97
2019-04-14T06:36:34.187Z,15.50
2019-04-14T06:39:04.383Z,18.17
2019-04-14T06:41:32.951Z,14.60
2019-04-14T06:44:01.497Z,17.57
2019-04-14T06:46:30.209Z,15.83
2019-04-14T06:48:58.756Z,14.20
2019-04-14T06:51:27.365Z,14.90
2019-04-14T06:53:55.923Z,15.23
2019-04-14T06:56:24.528Z,14.20
2019-04-14T06:58:53.108Z,17.73
2019-04-14T07:01:21.673Z,17.20
2019-04-14T07:03:50.222Z,14.70
2019-04-14T07:06:18.854Z,17.13
2019-04-14T07:08:47.441Z,16.10
2019-04-14T07:11:16.039Z,13.13
2019-04-14T07:13:47.923Z,16.17
2019-04-14T07:16:14.883Z,15.10
2019-04-14T07:18:43.392Z,15.47
2019-04-14T07:21:11.958Z,16.27
2019-04-14T07:23:40.539Z,13.70
2019-04-14T07:26:09.183Z,17.83
2019-04-14T07:28:37.754Z,17.03
2019-04-14T07:31:23.052Z,15.90
2019-04-14T07:33:53.303Z,16.80
2019-04-14T07:36:26.440Z,15.53
2019-04-14T07:39:11.318Z,16.73
2019-04-14T07:41:41.629Z,18.20
2019-04-14T07:44:20.697Z,16.63
2019-04-14T07:46:50.943Z,17.43
2019-04-14T07:49:37.717Z,15.50
2019-04-14T07:52:10.973Z,19.93
2019-04-14T07:54:44.162Z,15.87
2019-04-14T07:57:14.411Z,16.53
2019-04-14T07:59:53.628Z,18.47
2019-04-14T08:02:28.118Z,17.30
2019-04-14T08:04:58.338Z,22.57
2019-04-14T08:07:27.621Z,19.97
2019-04-14T08:09:59.411Z,20.27
2019-04-14T08:12:27.988Z,17.60
2019-04-14T08:14:56.560Z,19.50
2019-04-14T08:17:25.134Z,21.90
2019-04-14T08:19:53.769Z,20.97
2019-04-14T08:22:22.408Z,23.90
2019-04-14T08:24:50.971Z,23.50
2019-04-14T08:27:19.543Z,20.90
2019-04-14T08:29:48.276Z,23.03
2019-04-14T08:32:16.892Z,27.50
2019-04-14T08:34:45.492Z,20.17
2019-04-14T08:37:14.126Z,17.07
2019-04-14T08:39:42.709Z,20.57
2019-04-14T08:42:16.019Z,18.47
2019-04-14T08:44:46.320Z,25.30
2019-04-14T08:47:28.504Z,26.73
2019-04-14T08:49:58.779Z,22.87
2019-04-14T08:52:31.907Z,21.30
2019-04-14T08:55:08.283Z,22.50
2019-04-14T08:57:47.135Z,23.43
2019-04-14T09:00:20.354Z,26.03
2019-04-14T09:03:05.662Z,22.73
2019-04-14T09:05:58.192Z,23.37
2019-04-14T09:08:44.829Z,25.80
2019-04-14T09:11:15.109Z,29.43
2019-04-14T09:13:43.730Z,24.00
2019-04-14T09:16:12.350Z,25.63
2019-04-14T09:18:40.964Z,26.60
2019-04-14T09:21:09.607Z,25.87
2019-04-14T09:23:38.268Z,22.27
2019-04-14T09:26:06.824Z,23.10
2019-04-14T09:28:35.448Z,25.73
2019-04-14T09:31:04.182Z,29.67
2019-04-14T09:33:32.806Z,25.40
2019-04-14T09:36:01.493Z,25.30
2019-04-14T09:38:30.148Z,25.00
2019-04-14T09:41:00.372Z,24.80
2019-04-14T09:43:28.976Z,25.83
2019-04-14T09:45:57.556Z,24.17
2019-04-14T09:48:26.176Z,31.17
2019-04-14T09:51:04.156Z,25.40
2019-04-14T09:53:25.096Z,31.30
2019-04-14T09:55:53.783Z,28.27
2019-04-14T09:58:22.393Z,24.43
2019-04-14T10:00:51.030Z,23.60
2019-04-14T10:03:19.664Z,28.50
2019-04-14T10:05:48.271Z,28.87
2019-04-14T10:08:16.898Z,26.97
2019-04-14T10:10:45.537Z,25.80
2019-04-14T10:13:14.101Z,30.97
2019-04-14T10:15:42.772Z,26.60
2019-04-14T10:18:15.869Z,24.93
2019-04-14T10:20:45.898Z,22.70
2019-04-14T10:23:14.538Z,33.43
2019-04-14T10:25:45.496Z,25.93
2019-04-14T10:28:15.473Z,22.10
2019-04-14T10:30:48.494Z,23.50
2019-04-14T10:33:36.374Z,34.80
2019-04-14T10:36:06.544Z,25.90
2019-04-14T10:38:39.097Z,27.20
2019-04-14T10:41:07.794Z,25.13
2019-04-14T10:43:36.472Z,25.77
2019-04-14T10:46:05.238Z,28.53
2019-04-14T10:48:33.857Z,24.90
2019-04-14T10:51:05.879Z,27.77
2019-04-14T10:53:36.231Z,23.63
2019-04-14T10:56:06.379Z,25.30
2019-04-14T10:58:35.005Z,23.97
2019-04-14T11:01:08.897Z,27.90
2019-04-14T11:03:39.152Z,29.00
2019-04-14T11:06:16.939Z,26.47
2019-04-14T11:08:46.961Z,24.90
2019-04-14T11:11:20.498Z,24.10
2019-04-14T11:13:49.492Z,26.47
2019-04-14T11:16:17.871Z,25.80
2019-04-14T11:18:48.013Z,25.47
2019-04-14T11:21:18.297Z,26.90
2019-04-14T11:23:46.871Z,28.70
2019-04-14T11:26:17.095Z,25.23
2019-04-14T11:28:51.112Z,25.70
2019-04-14T11:31:21.431Z,28.50
2019-04-14T11:34:01.758Z,24.77
2019-04-14T11:36:49.113Z,24.97
2019-04-14T11:39:19.438Z,22.30
2019-04-14T11:41:52.770Z,23.13
2019-04-14T11:44:21.546Z,25.20
2019-04-14T11:46:52.764Z,28.30
2019-04-14T11:49:23.515Z,22.67
2019-04-14T11:51:57.198Z,30.40
2019-04-14T11:54:27.856Z,27.87
2019-04-14T11:56:59.262Z,22.53
2019-04-14T11:59:35.331Z,23.33
2019-04-14T12:02:05.631Z,26.63
2019-04-14T12:04:44.971Z,25.27
2019-04-14T12:07:31.529Z,25.40
2019-04-14T12:10:03.387Z,26.23
2019-04-14T12:12:32.091Z,22.23
2019-04-14T12:15:00.767Z,23.83
2019-04-14T12:17:29.494Z,22.40
2019-04-14T12:19:58.181Z,29.07
2019-04-14T12:22:26.862Z,22.27
2019-04-14T12:24:55.415Z,31.30
2019-04-14T12:27:25.599Z,29.63
2019-04-14T12:29:54.477Z,23.33
2019-04-14T12:32:25.907Z,22.10
2019-04-14T12:34:56.035Z,22.77
2019-04-14T12:37:24.667Z,25.50
2019-04-14T12:39:53.471Z,22.80
2019-04-14T12:42:23.788Z,20.00
2019-04-14T12:44:58.585Z,24.73
2019-04-14T12:47:45.404Z,20.60
2019-04-14T12:50:19.739Z,23.50
2019-04-14T12:52:48.420Z,17.73
2019-04-14T12:55:19.561Z,21.00
2019-04-14T12:57:51.371Z,27.90
2019-04-14T13:00:23.475Z,24.67
2019-04-14T13:02:56.090Z,22.53
2019-04-14T13:05:27.222Z,22.03
2019-04-14T13:07:55.911Z,22.23
2019-04-14T13:10:24.583Z,24.63
2019-04-14T13:12:55.746Z,23.90
2019-04-14T13:15:24.327Z,25.40
2019-04-14T13:17:52.955Z,23.37
2019-04-14T13:20:24.946Z,21.57
2019-04-14T13:22:55.686Z,27.23
2019-04-14T13:25:24.423Z,22.10
2019-04-14T13:27:55.005Z,20.23
2019-04-14T13:30:25.803Z,24.20
2019-04-14T13:32:54.449Z,21.03
2019-04-14T13:35:23.045Z,21.10
2019-04-14T13:37:51.737Z,25.47
2019-04-14T13:40:20.837Z,20.67
2019-04-14T13:42:49.495Z,21.90
2019-04-14T13:45:18.155Z,23.87
2019-04-14T13:47:46.841Z,24.27
2019-04-14T13:50:16.081Z,18.70
2019-04-14T13:52:47.164Z,22.03
2019-04-14T13:55:15.154Z,20.77
2019-04-14T13:57:43.814Z,22.43
2019-04-14T14:00:20.655Z,20.00
2019-04-14T14:02:49.246Z,18.43
2019-04-14T14:05:17.870Z,21.67
2019-04-14T14:07:46.643Z,19.23
2019-04-14T14:10:15.952Z,19.30
2019-04-14T14:12:48.689Z,17.57
2019-04-14T14:15:20.930Z,17.17
2019-04-14T14:17:59.939Z,21.70
2019-04-14T14:20:35.309Z,16.93
2019-04-14T14:23:20.959Z,20.50
2019-04-14T14:25:59.821Z,18.90
2019-04-14T14:28:28.491Z,19.60
2019-04-14T14:30:58.188Z,17.37
2019-04-14T14:33:26.822Z,18.00
2019-04-14T14:35:56.001Z,16.20
2019-04-14T14:38:25.774Z,15.80
2019-04-14T14:40:55.631Z,13.97
2019-04-14T14:43:24.665Z,16.23
2019-04-14T14:45:54.953Z,15.87
2019-04-14T14:48:28.107Z,14.87
2019-04-14T14:50:58.773Z,19.33
2019-04-14T14:53:28.901Z,15.00
2019-04-14T14:55:58.635Z,11.43
2019-04-14T14:58:27.253Z,14.10
2019-04-14T15:00:55.923Z,12.80
2019-04-14T15:03:24.545Z,11.87
2019-04-14T15:05:53.176Z,16.33
2019-04-14T15:08:22.101Z,16.10
2019-04-14T15:10:50.873Z,17.50
2019-04-14T15:13:19.545Z,13.83
2019-04-14T15:15:48.158Z,16.40
2019-04-14T15:18:16.768Z,18.50
2019-04-14T15:20:45.404Z,18.07
2019-04-14T15:23:24.289Z,18.53
2019-04-14T15:25:44.348Z,19.13
2019-04-14T15:28:15.621Z,19.13
2019-04-14T15:30:43.680Z,15.57
2019-04-14T15:33:12.344Z,19.63
2019-04-14T15:35:42.541Z,16.53
2019-04-14T15:38:11.561Z,16.93
2019-04-14T15:40:41.795Z,21.10
2019-04-14T15:43:10.377Z,15.30
2019-04-14T15:45:39.134Z,16.07
2019-04-14T15:48:07.720Z,18.90
2019-04-14T15:50:37.654Z,16.43
2019-04-14T15:53:06.318Z,24.80
2019-04-14T15:55:36.524Z,15.07
2019-04-14T15:58:16.100Z,19.17
2019-04-14T16:00:55.660Z,17.87
2019-04-14T16:03:28.889Z,13.50
2019-04-14T16:06:02.589Z,22.63
2019-04-14T16:08:32.842Z,16.13
2019-04-14T16:11:09.222Z,14.33
2019-04-14T16:13:39.511Z,14.30
2019-04-14T16:16:12.423Z,17.07
2019-04-14T16:18:46.940Z,16.40
2019-04-14T16:21:15.757Z,16.80
2019-04-14T16:23:50.823Z,12.30
2019-04-14T16:26:20.386Z,19.20
2019-04-14T16:28:50.752Z,22.43
2019-04-14T16:31:37.471Z,20.00
2019-04-14T16:34:14.793Z,14.77
2019-04-14T16:36:45.368Z,15.37
2019-04-14T16:39:15.177Z,14.90
2019-04-14T16:41:43.871Z,19.00
2019-04-14T16:44:14.043Z,16.30
2019-04-14T16:46:47.513Z,22.00
2019-04-14T16:49:16.215Z,13.67
2019-04-14T16:51:52.897Z,24.60
2019-04-14T16:54:25.704Z,19.60
2019-04-14T16:57:13.130Z,15.40
2019-04-14T16:59:41.830Z,16.83
2019-04-14T17:02:11.377Z,17.70
2019-04-14T17:04:41.805Z,19.20
2019-04-14T17:07:10.633Z,18.20
2019-04-14T17:09:39.188Z,14.27
2019-04-14T17:12:08.905Z,16.67
2019-04-14T17:14:43.411Z,16.47
2019-04-14T17:17:18.347Z,15.73
2019-04-14T17:19:50.192Z,16.90
2019-04-14T17:22:23.655Z,16.77
2019-04-14T17:25:18.838Z,18.00
2019-04-14T17:28:04.452Z,21.00
2019-04-14T17:30:46.835Z,15.27
2019-04-14T17:33:17.355Z,15.60
2019-04-14T17:35:57.211Z,13.20
2019-04-14T17:38:33.385Z,16.30
2019-04-14T17:41:19.823Z,20.13
2019-04-14T17:43:53.465Z,16.67
2019-04-14T17:46:29.665Z,17.80
2019-04-14T17:49:17.395Z,19.43
2019-04-14T17:51:56.227Z,15.53
2019-04-14T17:54:35.779Z,17.83
2019-04-14T17:57:21.282Z,15.33
2019-04-14T18:00:07.988Z,18.90
2019-04-14T18:02:38.395Z,23.50
2019-04-14T18:05:09.837Z,17.77
2019-04-14T18:07:43.704Z,33.67
2019-04-14T18:10:18.791Z,14.20
2019-04-14T18:13:02.457Z,13.80
2019-04-14T18:15:36.819Z,16.77
2019-04-14T18:18:09.655Z,16.87
2019-04-14T18:20:41.718Z,12.97
2019-04-14T18:23:12.560Z,20.57
2019-04-14T18:25:43.395Z,12.80
2019-04-14T18:28:19.561Z,16.80
2019-04-14T18:30:49.861Z,12.70
2019-04-14T18:33:30.947Z,15.70
2019-04-14T18:36:02.138Z,15.27
2019-04-14T18:38:50.569Z,16.80
2019-04-14T18:41:27.627Z,18.87
2019-04-14T18:44:14.332Z,20.00
2019-04-14T18:46:46.634Z,21.70
2019-04-14T18:49:19.735Z,14.23
2019-04-14T18:51:53.493Z,21.43
2019-04-14T18:54:23.975Z,15.77
2019-04-14T18:56:54.211Z,14.63
2019-04-14T18:59:29.380Z,15.20
2019-04-14T19:02:01.249Z,21.23
2019-04-14T19:04:31.521Z,15.90
2019-04-14T19:07:00.758Z,17.00
2019-04-14T19:09:32.830Z,15.60
2019-04-14T19:12:06.086Z,14.20
2019-04-14T19:14:40.555Z,15.20
2019-04-14T19:17:17.140Z,15.10
2019-04-14T19:20:00.782Z,11.33
2019-04-14T19:22:20.975Z,16.37
2019-04-14T19:24:50.117Z,16.40
2019-04-14T19:27:20.338Z,17.70
2019-04-14T19:29:53.607Z,9.07
2019-04-14T19:32:21.988Z,17.07
2019-04-14T19:34:51.673Z,13.70
2019-04-14T19:37:21.463Z,12.33
2019-04-14T19:39:52.338Z,11.63
2019-04-14T19:42:21.182Z,14.63
2019-04-14T19:44:53.888Z,12.37
2019-04-14T19:47:22.587Z,15.03
2019-04-14T19:49:51.254Z,11.60
2019-04-14T19:52:19.968Z,13.00
2019-04-14T19:54:48.562Z,8.00
2019-04-14T19:57:17.254Z,10.97
2019-04-14T19:59:46.212Z,11.83
2019-04-14T20:02:15.609Z,7.97
2019-04-14T20:04:44.261Z,12.97
2019-04-14T20:07:13.284Z,7.20
2019-04-14T20:09:42.005Z,9.60
2019-04-14T20:12:10.661Z,13.93
2019-04-14T20:14:41.621Z,12.90
2019-04-14T20:17:18.754Z,9.63
2019-04-14T20:20:03.414Z,6.07
2019-04-14T20:22:33.766Z,7.90
2019-04-14T20:25:07.141Z,14.40
2019-04-14T20:27:43.433Z,17.93
2019-04-14T20:30:16.847Z,8.77
2019-04-14T20:32:45.964Z,10.70
2019-04-14T20:35:14.966Z,9.03
2019-04-14T20:37:45.098Z,9.43
2019-04-14T20:40:13.962Z,11.20
2019-04-14T20:42:42.664Z,8.27
2019-04-14T20:45:13.098Z,7.77
2019-04-14T20:47:41.752Z,6.83
2019-04-14T20:50:10.575Z,14.80
2019-04-14T20:52:39.390Z,14.23
2019-04-14T20:55:08.361Z,10.83
2019-04-14T20:57:36.944Z,13.13
2019-04-14T21:00:06.706Z,8.87
2019-04-14T21:02:53.268Z,9.87
2019-04-14T21:05:33.163Z,9.60
2019-04-14T21:08:19.599Z,10.90
2019-04-14T21:10:52.561Z,9.13
2019-04-14T21:13:40.955Z,19.27
2019-04-14T21:16:27.700Z,11.30
2019-04-14T21:18:59.465Z,15.83
2019-04-14T21:21:29.693Z,11.93
2019-04-14T21:24:00.104Z,7.77
2019-04-14T21:26:45.576Z,7.30
2019-04-14T21:29:26.409Z,9.00
2019-04-14T21:31:56.593Z,8.70
2019-04-14T21:34:32.655Z,9.47
2019-04-14T21:37:08.854Z,12.27
2019-04-14T21:39:44.851Z,12.33
2019-04-14T21:42:14.538Z,7.93
2019-04-14T21:44:43.244Z,6.90
2019-04-14T21:47:11.840Z,10.13
2019-04-14T21:49:40.360Z,11.70
2019-04-14T21:52:10.524Z,15.37
2019-04-14T21:54:40.756Z,12.43
2019-04-14T21:57:13.723Z,11.60
2019-04-14T22:00:00.013Z,12.93
2019-04-14T22:02:45.251Z,10.27
2019-04-14T22:05:31.897Z,10.80
2019-04-14T22:08:02.151Z,11.37
2019-04-14T22:10:41.415Z,10.10
2019-04-14T22:13:10.059Z,7.83
2019-04-14T22:15:38.712Z,20.83
2019-04-14T22:18:07.264Z,8.27
2019-04-14T22:20:35.791Z,13.10
2019-04-14T22:23:06.041Z,12.27
2019-04-14T22:25:34.710Z,13.40
2019-04-14T22:28:03.236Z,10.60
2019-04-14T22:30:31.794Z,10.60
2019-04-14T22:33:00.312Z,11.90
2019-04-14T22:35:28.875Z,11.03
2019-04-14T22:37:57.441Z,8.93
2019-04-14T22:40:26.009Z,13.97
2019-04-14T22:42:54.599Z,6.20
2019-04-14T22:45:23.136Z,8.07
2019-04-14T22:47:51.698Z,8.50
2019-04-14T22:50:20.243Z,8.87
2019-04-14T22:52:48.744Z,9.27
2019-04-14T22:55:17.209Z,8.77
2019-04-14T22:57:45.691Z,11.40
2019-04-14T23:00:18.943Z,11.73
2019-04-14T23:02:58.143Z,12.60
2019-04-14T23:05:40.218Z,10.10
2019-04-14T23:08:13.090Z,11.00
2019-04-14T23:10:59.694Z,11.67
2019-04-14T23:13:32.586Z,7.27
2019-04-14T23:16:19.046Z,10.03
2019-04-14T23:18:58.051Z,15.67
2019-04-14T23:21:28.164Z,7.17
2019-04-14T23:24:13.343Z,9.77
2019-04-14T23:26:51.747Z,16.17
2019-04-14T23:29:12.051Z,10.30
2019-04-14T23:31:40.547Z,11.93
2019-04-14T23:34:09.054Z,12.33
2019-04-14T23:36:37.606Z,12.80
2019-04-14T23:39:09.160Z,11.53
2019-04-14T23:41:37.803Z,11.90
2019-04-14T23:44:06.385Z,6.83
2019-04-14T23:46:34.857Z,10.93
2019-04-14T23:49:03.445Z,10.70
2019-04-14T23:51:31.947Z,11.73
2019-04-14T23:54:00.427Z,18.10
2019-04-14T23:56:29.027Z,14.03
2019-04-14T23:58:57.503Z,11.90
